New Suffolk, New York
Current Conditions -  °F | °C
As of 7:53 PM on Friday 19 Dec 2014 (Local Time) from KFOK Reporting Station
Overcast Overcast  
Wind Chill: 27°   Ceiling: 3000
Heat Index: 33°   Visibility: 10mi
Dew Point: 21°   Wind: 7mph
Humidity: 61%   Direction: 320°NW
Pressure: 30.14"   Gusts: NA
Location:  40.99°N, 72.48°W
Report Text: KFOK 200053Z 32006KT 10SM OVC030 01/M06 A3014 RMK AO2 SLP208 T00061061
Loading
Personal Weather Stations






























Interactive Weather Map New forecast layout! Learn more

10-Day Weather Forecast

Advertisements
Track Severe Weather on mobile